sensor_id;sensor_type;location;lat;lon;timestamp;P1;P4;P2;P0;N10;N4;N25;N1;N05;TS
65988;SPS30;53592;51.402;6.054;2023-01-10T00:00:31;4.45;4.43;4.32;3.96;31.65;31.63;31.59;31.37;27.39;0.56
65988;SPS30;53592;51.402;6.054;2023-01-10T00:03:01;4.53;4.50;4.35;3.93;31.43;31.41;31.36;31.08;27.06;0.58
65988;SPS30;53592;51.402;6.054;2023-01-10T00:05:29;4.63;4.60;4.47;4.07;32.57;32.55;32.51;32.25;28.12;0.59
65988;SPS30;53592;51.402;6.054;2023-01-10T00:07:55;4.87;4.82;4.61;4.10;32.78;32.76;32.69;32.33;28.06;0.60
65988;SPS30;53592;51.402;6.054;2023-01-10T00:10:23;4.90;4.85;4.62;4.10;32.78;32.76;32.69;32.31;28.02;0.60
65988;SPS30;53592;51.402;6.054;2023-01-10T00:12:49;4.92;4.88;4.65;4.13;33.07;33.05;32.98;32.61;28.29;0.60
65988;SPS30;53592;51.402;6.054;2023-01-10T00:15:33;4.87;4.83;4.62;4.11;32.89;32.87;32.81;32.45;28.17;0.59
65988;SPS30;53592;51.402;6.054;2023-01-10T00:18:00;4.66;4.62;4.45;4.00;31.99;31.98;31.92;31.62;27.50;0.57
65988;SPS30;53592;51.402;6.054;2023-01-10T00:20:26;4.69;4.63;4.35;3.79;30.30;30.28;30.20;29.77;25.71;0.60
65988;SPS30;53592;51.402;6.054;2023-01-10T00:22:51;5.20;5.12;4.70;3.95;31.64;31.62;31.50;30.89;26.47;0.62
65988;SPS30;53592;51.402;6.054;2023-01-10T00:25:17;4.76;4.68;4.31;3.65;29.19;29.17;29.07;28.53;24.47;0.60
65988;SPS30;53592;51.402;6.054;2023-01-10T00:27:48;4.73;4.66;4.31;3.67;29.41;29.39;29.29;28.78;24.73;0.61
65988;SPS30;53592;51.402;6.054;2023-01-10T00:30:22;4.69;4.62;4.28;3.65;29.25;29.23;29.13;28.63;24.62;0.61
65988;SPS30;53592;51.402;6.054;2023-01-10T00:32:47;4.88;4.80;4.41;3.71;29.75;29.73;29.62;29.05;24.91;0.62
65988;SPS30;53592;51.402;6.054;2023-01-10T00:35:13;5.00;4.93;4.57;3.90;31.20;31.18;31.08;30.55;26.26;0.62
65988;SPS30;53592;51.402;6.054;2023-01-10T00:37:39;4.80;4.73;4.36;3.69;29.51;29.49;29.38;28.84;24.75;0.64
65988;SPS30;53592;51.402;6.054;2023-01-10T00:40:05;4.84;4.77;4.40;3.73;29.84;29.81;29.71;29.17;25.04;0.64
65988;SPS30;53592;51.402;6.054;2023-01-10T00:42:33;4.95;4.87;4.49;3.80;30.44;30.42;30.31;29.76;25.54;0.62
65988;SPS30;53592;51.402;6.054;2023-01-10T00:45:18;4.87;4.79;4.43;3.76;30.09;30.07;29.97;29.43;25.27;0.63
65988;SPS30;53592;51.402;6.054;2023-01-10T00:47:44;4.90;4.84;4.52;3.90;31.21;31.19;31.10;30.62;26.39;0.61
65988;SPS30;53592;51.402;6.054;2023-01-10T00:50:10;5.08;5.00;4.59;3.87;31.02;30.99;30.88;30.29;25.97;0.61
65988;SPS30;53592;51.402;6.054;2023-01-10T00:52:36;5.04;4.95;4.52;3.76;30.14;30.11;29.99;29.37;25.11;0.61
65988;SPS30;53592;51.402;6.054;2023-01-10T00:55:01;5.01;4.92;4.49;3.73;29.90;29.87;29.75;29.13;24.90;0.62
65988;SPS30;53592;51.402;6.054;2023-01-10T00:57:27;5.23;5.12;4.61;3.76;30.10;30.07;29.93;29.21;24.84;0.62
65988;SPS30;53592;51.402;6.054;2023-01-10T00:59:52;5.57;5.46;4.89;3.97;31.79;31.76;31.61;30.82;26.18;0.63
65988;SPS30;53592;51.402;6.054;2023-01-10T01:02:18;5.52;5.42;4.90;4.03;32.26;32.23;32.09;31.36;26.73;0.62
65988;SPS30;53592;51.402;6.054;2023-01-10T01:04:43;4.76;4.69;4.31;3.63;29.07;29.05;28.94;28.39;24.34;0.62
65988;SPS30;53592;51.402;6.054;2023-01-10T01:07:09;4.79;4.72;4.36;3.70;29.66;29.63;29.53;29.01;24.92;0.63
65988;SPS30;53592;51.402;6.054;2023-01-10T01:09:34;5.24;5.15;4.70;3.91;31.35;31.32;31.20;30.56;26.13;0.64
65988;SPS30;53592;51.402;6.054;2023-01-10T01:12:20;4.93;4.85;4.44;3.72;29.80;29.77;29.66;29.07;24.89;0.62
65988;SPS30;53592;51.402;6.054;2023-01-10T01:14:45;5.01;4.93;4.52;3.79;30.38;30.35;30.24;29.65;25.40;0.62
65988;SPS30;53592;51.402;6.054;2023-01-10T01:17:11;4.53;4.47;4.13;3.51;28.10;28.08;27.98;27.49;23.61;0.61
65988;SPS30;53592;51.402;6.054;2023-01-10T01:19:36;4.56;4.49;4.16;3.54;28.37;28.34;28.25;27.76;23.86;0.60
65988;SPS30;53592;51.402;6.054;2023-01-10T01:22:01;4.31;4.25;3.93;3.35;26.85;26.83;26.75;26.29;22.60;0.60
65988;SPS30;53592;51.402;6.054;2023-01-10T01:24:27;4.84;4.76;4.40;3.74;29.95;29.92;29.82;29.29;25.16;0.61
65988;SPS30;53592;51.402;6.054;2023-01-10T01:26:52;5.07;4.97;4.50;3.70;29.64;29.61;29.48;28.81;24.56;0.65
65988;SPS30;53592;51.402;6.054;2023-01-10T01:29:18;5.04;4.96;4.56;3.84;30.74;30.72;30.61;30.03;25.74;0.62
65988;SPS30;53592;51.402;6.054;2023-01-10T01:31:43;4.37;4.32;4.03;3.47;27.76;27.74;27.66;27.22;23.45;0.62
65988;SPS30;53592;51.402;6.054;2023-01-10T01:34:09;4.88;4.81;4.45;3.79;30.31;30.29;30.18;29.65;25.48;0.62
65988;SPS30;53592;51.402;6.054;2023-01-10T01:36:34;4.99;4.93;4.59;3.94;31.55;31.52;31.43;30.92;26.62;0.61
65988;SPS30;53592;51.402;6.054;2023-01-10T01:39:00;5.09;5.01;4.65;3.96;31.73;31.71;31.61;31.06;26.71;0.63
65988;SPS30;53592;51.402;6.054;2023-01-10T01:41:25;5.06;4.97;4.51;3.74;29.96;29.94;29.81;29.17;24.91;0.63
65988;SPS30;53592;51.402;6.054;2023-01-10T01:44:12;4.73;4.66;4.35;3.74;29.93;29.91;29.82;29.34;25.27;0.61
65988;SPS30;53592;51.402;6.054;2023-01-10T01:46:40;4.83;4.76;4.43;3.80;30.45;30.43;30.34;29.85;25.69;0.60
65988;SPS30;53592;51.402;6.054;2023-01-10T01:49:28;5.10;5.03;4.71;4.07;32.58;32.56;32.47;31.98;27.58;0.61
65988;SPS30;53592;51.402;6.054;2023-01-10T01:51:59;5.12;5.04;4.65;3.93;31.50;31.47;31.36;30.79;26.42;0.62
65988;SPS30;53592;51.402;6.054;2023-01-10T01:54:28;4.98;4.90;4.51;3.82;30.55;30.53;30.42;29.86;25.61;0.62
65988;SPS30;53592;51.402;6.054;2023-01-10T01:56:58;5.20;5.12;4.70;3.95;31.63;31.61;31.49;30.88;26.46;0.63
65988;SPS30;53592;51.402;6.054;2023-01-10T01:59:38;5.34;5.24;4.77;3.96;31.76;31.73;31.60;30.93;26.43;0.66
65988;SPS30;53592;51.402;6.054;2023-01-10T02:02:24;5.25;5.16;4.70;3.90;31.24;31.21;31.09;30.43;26.00;0.65
65988;SPS30;53592;51.402;6.054;2023-01-10T02:04:56;5.13;5.05;4.67;3.96;31.71;31.69;31.58;31.01;26.63;0.62
65988;SPS30;53592;51.402;6.054;2023-01-10T02:07:28;5.22;5.14;4.74;4.02;32.15;32.13;32.02;31.44;26.99;0.63
65988;SPS30;53592;51.402;6.054;2023-01-10T02:12:46;5.21;5.12;4.68;3.90;31.26;31.24;31.11;30.48;26.07;0.62
65988;SPS30;53592;51.402;6.054;2023-01-10T02:15:16;5.15;5.06;4.62;3.86;30.90;30.88;30.76;30.13;25.77;0.63
65988;SPS30;53592;51.402;6.054;2023-01-10T02:17:42;5.09;5.02;4.68;4.03;32.29;32.26;32.17;31.66;27.27;0.58
65988;SPS30;53592;51.402;6.054;2023-01-10T02:20:12;4.78;4.73;4.46;3.91;31.24;31.23;31.15;30.73;26.57;0.60
65988;SPS30;53592;51.402;6.054;2023-01-10T02:31:51;4.96;4.88;4.50;3.80;30.42;30.40;30.29;29.73;25.50;0.61
65988;SPS30;53592;51.402;6.054;2023-01-10T02:39:57;4.81;4.75;4.46;3.87;31.01;30.99;30.90;30.46;26.29;0.61
65988;SPS30;53592;51.402;6.054;2023-01-10T02:43:24;5.08;5.00;4.63;3.95;31.60;31.57;31.47;30.92;26.58;0.61
65988;SPS30;53592;51.402;6.054;2023-01-10T02:45:56;5.03;4.96;4.61;3.95;31.58;31.56;31.46;30.94;26.62;0.63
65988;SPS30;53592;51.402;6.054;2023-01-10T02:48:29;5.05;4.98;4.62;3.94;31.56;31.53;31.43;30.89;26.56;0.61
65988;SPS30;53592;51.402;6.054;2023-01-10T02:51:00;4.83;4.75;4.40;3.75;30.00;29.98;29.88;29.36;25.23;0.61
65988;SPS30;53592;51.402;6.054;2023-01-10T02:53:35;4.59;4.53;4.22;3.64;29.13;29.11;29.02;28.57;24.61;0.61
65988;SPS30;53592;51.402;6.054;2023-01-10T03:04:27;5.05;4.95;4.42;3.57;28.64;28.61;28.47;27.74;23.54;0.66
65988;SPS30;53592;51.402;6.054;2023-01-10T03:07:16;5.43;5.32;4.75;3.83;30.69;30.65;30.50;29.71;25.20;0.67
65988;SPS30;53592;51.402;6.054;2023-01-10T03:12:22;4.66;4.59;4.24;3.60;28.83;28.81;28.71;28.20;24.22;0.62
65988;SPS30;53592;51.402;6.054;2023-01-10T03:14:59;5.15;5.05;4.54;3.71;29.75;29.72;29.59;28.89;24.58;0.66
65988;SPS30;53592;51.402;6.054;2023-01-10T03:17:29;4.67;4.57;4.10;3.32;26.59;26.57;26.44;25.78;21.89;0.67
65988;SPS30;53592;51.402;6.054;2023-01-10T03:19:57;4.64;4.54;4.06;3.28;26.29;26.27;26.14;25.47;21.62;0.68
65988;SPS30;53592;51.402;6.054;2023-01-10T03:22:28;5.14;5.02;4.42;3.47;27.88;27.85;27.68;26.86;22.64;0.68
65988;SPS30;53592;51.402;6.054;2023-01-10T03:24:58;4.56;4.46;3.98;3.19;25.61;25.59;25.46;24.79;21.01;0.66
65988;SPS30;53592;51.402;6.054;2023-01-10T03:30:29;4.26;4.17;3.70;2.95;23.67;23.64;23.52;22.87;19.35;0.67
65988;SPS30;53592;51.402;6.054;2023-01-10T03:33:08;4.45;4.36;3.91;3.16;25.34;25.31;25.19;24.56;20.85;0.65
65988;SPS30;53592;51.402;6.054;2023-01-10T03:38:56;4.50;4.40;3.91;3.12;25.03;25.00;24.87;24.19;20.47;0.66
65988;SPS30;53592;51.402;6.054;2023-01-10T03:44:25;4.28;4.17;3.64;2.82;22.60;22.57;22.43;21.71;18.22;0.68
65988;SPS30;53592;51.402;6.054;2023-01-10T03:49:55;4.50;4.39;3.81;2.92;23.44;23.41;23.25;22.47;18.81;0.69
65988;SPS30;53592;51.402;6.054;2023-01-10T03:52:25;4.30;4.20;3.71;2.92;23.46;23.43;23.30;22.62;19.08;0.66
65988;SPS30;53592;51.402;6.054;2023-01-10T03:54:52;4.80;4.68;4.07;3.14;25.17;25.13;24.97;24.15;20.24;0.68
65988;SPS30;53592;51.402;6.054;2023-01-10T03:57:21;4.64;4.52;3.97;3.10;24.85;24.82;24.67;23.92;20.12;0.68
65988;SPS30;53592;51.402;6.054;2023-01-10T03:59:49;4.50;4.39;3.84;2.98;23.92;23.90;23.75;23.00;19.32;0.71
65988;SPS30;53592;51.402;6.054;2023-01-10T04:02:17;4.56;4.43;3.78;2.81;22.57;22.54;22.37;21.50;17.85;0.73
65988;SPS30;53592;51.402;6.054;2023-01-10T04:04:43;4.99;4.85;4.14;3.09;24.84;24.81;24.62;23.68;19.68;0.71
65988;SPS30;53592;51.402;6.054;2023-01-10T04:07:08;5.26;5.11;4.32;3.17;25.51;25.47;25.26;24.22;20.04;0.73
65988;SPS30;53592;51.402;6.054;2023-01-10T04:09:34;5.50;5.32;4.45;3.20;25.73;25.68;25.46;24.31;19.98;0.75
65988;SPS30;53592;51.402;6.054;2023-01-10T04:11:59;5.56;5.40;4.56;3.34;26.87;26.83;26.61;25.51;21.09;0.72
65988;SPS30;53592;51.402;6.054;2023-01-10T04:14:25;5.51;5.34;4.45;3.17;25.53;25.49;25.26;24.10;19.76;0.72
65988;SPS30;53592;51.402;6.054;2023-01-10T04:16:51;5.48;5.29;4.36;3.03;24.37;24.33;24.08;22.86;18.60;0.74
65988;SPS30;53592;51.402;6.054;2023-01-10T04:19:17;5.60;5.40;4.41;3.02;24.34;24.29;24.04;22.75;18.42;0.74
65988;SPS30;53592;51.402;6.054;2023-01-10T04:21:43;5.96;5.76;4.75;3.31;26.69;26.64;26.38;25.06;20.41;0.72
65988;SPS30;53592;51.402;6.054;2023-01-10T04:24:08;5.55;5.37;4.47;3.17;25.51;25.47;25.23;24.04;19.69;0.73
65988;SPS30;53592;51.402;6.054;2023-01-10T04:26:34;5.51;5.32;4.37;3.03;24.37;24.33;24.08;22.85;18.57;0.74
65988;SPS30;53592;51.402;6.054;2023-01-10T04:28:59;5.96;5.76;4.77;3.35;26.96;26.91;26.66;25.35;20.70;0.72
65988;SPS30;53592;51.402;6.054;2023-01-10T04:31:25;5.67;5.48;4.55;3.21;25.81;25.76;25.52;24.29;19.85;0.71
65988;SPS30;53592;51.402;6.054;2023-01-10T04:33:51;5.61;5.42;4.48;3.14;25.30;25.25;25.01;23.78;19.40;0.74
65988;SPS30;53592;51.402;6.054;2023-01-10T04:36:17;5.83;5.63;4.58;3.12;25.12;25.08;24.81;23.45;18.95;0.75
65988;SPS30;53592;51.402;6.054;2023-01-10T04:38:42;5.76;5.55;4.51;3.04;24.52;24.47;24.20;22.85;18.41;0.74
65988;SPS30;53592;51.402;6.054;2023-01-10T04:41:08;6.27;6.03;4.82;3.15;25.37;25.32;25.01;23.44;18.67;0.76
65988;SPS30;53592;51.402;6.054;2023-01-10T04:43:34;6.31;6.06;4.85;3.17;25.59;25.54;25.22;23.66;18.86;0.77
65988;SPS30;53592;51.402;6.054;2023-01-10T04:45:59;6.15;5.92;4.77;3.16;25.45;25.40;25.10;23.60;18.90;0.76
65988;SPS30;53592;51.402;6.054;2023-01-10T04:48:25;6.07;5.85;4.76;3.22;25.92;25.87;25.59;24.16;19.49;0.77
65988;SPS30;53592;51.402;6.054;2023-01-10T04:50:51;5.91;5.70;4.64;3.16;25.45;25.40;25.13;23.75;19.19;0.76
65988;SPS30;53592;51.402;6.054;2023-01-10T04:53:17;6.47;6.23;5.05;3.40;27.43;27.37;27.07;25.54;20.57;0.76
65988;SPS30;53592;51.402;6.054;2023-01-10T04:55:44;5.88;5.68;4.64;3.17;25.57;25.52;25.25;23.90;19.35;0.75
65988;SPS30;53592;51.402;6.054;2023-01-10T04:58:10;6.59;6.34;5.08;3.33;26.84;26.78;26.46;24.83;19.81;0.78
65988;SPS30;53592;51.402;6.054;2023-01-10T05:00:36;6.66;6.40;5.07;3.24;26.13;26.07;25.73;24.01;18.98;0.79
65988;SPS30;53592;51.402;6.054;2023-01-10T05:03:02;6.59;6.33;5.05;3.27;26.37;26.31;25.98;24.32;19.32;0.78
65988;SPS30;53592;51.402;6.054;2023-01-10T05:05:27;6.87;6.59;5.23;3.34;27.00;26.94;26.59;24.82;19.64;0.79
65988;SPS30;53592;51.402;6.054;2023-01-10T05:07:53;7.19;6.91;5.49;3.54;28.55;28.49;28.12;26.30;20.85;0.78
65988;SPS30;53592;51.402;6.054;2023-01-10T05:10:18;7.03;6.76;5.39;3.50;28.26;28.20;27.85;26.08;20.74;0.76
65988;SPS30;53592;51.402;6.054;2023-01-10T05:12:44;6.34;6.10;4.87;3.17;25.54;25.48;25.17;23.58;18.76;0.75
65988;SPS30;53592;51.402;6.054;2023-01-10T05:15:11;6.10;5.87;4.72;3.12;25.16;25.10;24.81;23.32;18.66;0.74
65988;SPS30;53592;51.402;6.054;2023-01-10T05:17:37;6.80;6.53;5.17;3.31;26.72;26.66;26.31;24.56;19.42;0.76
65988;SPS30;53592;51.402;6.054;2023-01-10T05:20:03;6.46;6.19;4.89;3.09;24.95;24.89;24.55;22.86;18.01;0.77
65988;SPS30;53592;51.402;6.054;2023-01-10T05:22:29;6.47;6.21;4.94;3.18;25.63;25.57;25.24;23.59;18.70;0.77
65988;SPS30;53592;51.402;6.054;2023-01-10T05:24:55;6.64;6.39;5.11;3.35;26.99;26.94;26.61;24.96;19.90;0.77
65988;SPS30;53592;51.402;6.054;2023-01-10T05:27:20;6.35;6.10;4.87;3.16;25.53;25.47;25.16;23.56;18.74;0.78
65988;SPS30;53592;51.402;6.054;2023-01-10T05:29:46;6.47;6.22;4.98;3.25;26.20;26.14;25.82;24.21;19.28;0.77
65988;SPS30;53592;51.402;6.054;2023-01-10T05:32:11;7.06;6.78;5.35;3.39;27.37;27.30;26.93;25.09;19.78;0.78
65988;SPS30;53592;51.402;6.054;2023-01-10T05:34:36;6.84;6.55;5.10;3.13;25.28;25.21;24.84;22.98;17.89;0.80
65988;SPS30;53592;51.402;6.054;2023-01-10T05:37:02;7.06;6.76;5.27;3.24;26.20;26.13;25.75;23.83;18.57;0.80
65988;SPS30;53592;51.402;6.054;2023-01-10T05:39:27;6.91;6.64;5.28;3.40;27.47;27.40;27.06;25.30;20.06;0.77
65988;SPS30;53592;51.402;6.054;2023-01-10T05:41:53;6.46;6.22;4.98;3.27;26.41;26.35;26.03;24.44;19.51;0.77
65988;SPS30;53592;51.402;6.054;2023-01-10T05:44:18;6.76;6.49;5.16;3.31;26.73;26.66;26.32;24.59;19.48;0.80
65988;SPS30;53592;51.402;6.054;2023-01-10T05:46:44;6.55;6.30;5.07;3.36;27.07;27.01;26.69;25.10;20.09;0.77
65988;SPS30;53592;51.402;6.054;2023-01-10T05:49:09;5.81;5.61;4.62;3.22;25.91;25.86;25.61;24.31;19.79;0.75
65988;SPS30;53592;51.402;6.054;2023-01-10T05:51:35;5.83;5.64;4.65;3.25;26.20;26.15;25.89;24.61;20.06;0.76
65988;SPS30;53592;51.402;6.054;2023-01-10T05:54:00;6.25;6.02;4.88;3.27;26.38;26.33;26.03;24.54;19.74;0.78
65988;SPS30;53592;51.402;6.054;2023-01-10T05:56:26;6.85;6.58;5.24;3.39;27.39;27.33;26.98;25.25;20.06;0.80
65988;SPS30;53592;51.402;6.054;2023-01-10T05:58:53;6.16;5.93;4.76;3.14;25.29;25.24;24.94;23.42;18.72;0.79
65988;SPS30;53592;51.402;6.054;2023-01-10T06:01:19;6.14;5.91;4.75;3.14;25.35;25.29;24.99;23.49;18.80;0.78
65988;SPS30;53592;51.402;6.054;2023-01-10T06:03:47;6.83;6.58;5.32;3.57;28.75;28.69;28.37;26.74;21.49;0.76
65988;SPS30;53592;51.402;6.054;2023-01-10T06:06:13;6.21;5.99;4.88;3.32;26.78;26.73;26.44;25.00;20.21;0.76
65988;SPS30;53592;51.402;6.054;2023-01-10T06:08:38;6.39;6.13;4.86;3.10;25.05;24.99;24.67;23.02;18.20;0.80
65988;SPS30;53592;51.402;6.054;2023-01-10T06:11:05;7.59;7.28;5.73;3.61;29.16;29.09;28.69;26.69;20.99;0.80
65988;SPS30;53592;51.402;6.054;2023-01-10T06:13:31;7.31;7.01;5.52;3.47;28.02;27.95;27.57;25.64;20.15;0.79
65988;SPS30;53592;51.402;6.054;2023-01-10T06:15:57;6.96;6.67;5.20;3.20;25.89;25.82;25.45;23.56;18.36;0.80
65988;SPS30;53592;51.402;6.054;2023-01-10T06:18:22;7.59;7.26;5.59;3.33;26.97;26.90;26.47;24.33;18.73;0.82
65988;SPS30;53592;51.402;6.054;2023-01-10T06:20:48;8.19;7.83;6.03;3.60;29.10;29.01;28.55;26.25;20.20;0.83
65988;SPS30;53592;51.402;6.054;2023-01-10T06:23:13;7.84;7.50;5.78;3.46;27.98;27.90;27.46;25.26;19.46;0.83
65988;SPS30;53592;51.402;6.054;2023-01-10T06:25:40;8.18;7.84;6.10;3.74;30.26;30.18;29.74;27.51;21.41;0.81
65988;SPS30;53592;51.402;6.054;2023-01-10T06:28:06;7.16;6.88;5.47;3.52;28.44;28.37;28.01;26.19;20.77;0.78
65988;SPS30;53592;51.402;6.054;2023-01-10T06:30:34;7.35;7.05;5.56;3.52;28.39;28.32;27.94;26.02;20.49;0.79
65988;SPS30;53592;51.402;6.054;2023-01-10T06:33:03;8.03;7.66;5.82;3.35;27.15;27.07;26.60;24.24;18.37;0.83
65988;SPS30;53592;51.402;6.054;2023-01-10T06:35:30;8.45;8.06;6.08;3.45;27.95;27.86;27.36;24.84;18.69;0.84
65988;SPS30;53592;51.402;6.054;2023-01-10T06:37:58;8.12;7.74;5.86;3.34;27.11;27.02;26.55;24.15;18.23;0.83
65988;SPS30;53592;51.402;6.054;2023-01-10T06:40:24;7.56;7.23;5.59;3.37;27.27;27.19;26.78;24.67;19.07;0.80
65988;SPS30;53592;51.402;6.054;2023-01-10T06:42:50;7.57;7.23;5.56;3.31;26.75;26.68;26.25;24.11;18.53;0.82
65988;SPS30;53592;51.402;6.054;2023-01-10T06:45:15;8.24;7.85;5.90;3.30;26.77;26.68;26.19;23.70;17.73;0.86
65988;SPS30;53592;51.402;6.054;2023-01-10T06:47:41;8.31;7.92;5.92;3.27;26.55;26.47;25.96;23.42;17.41;0.86
65988;SPS30;53592;51.402;6.054;2023-01-10T06:50:07;8.26;7.87;5.93;3.35;27.13;27.04;26.55;24.08;18.07;0.86
65988;SPS30;53592;51.402;6.054;2023-01-10T06:52:35;8.61;8.21;6.19;3.49;28.31;28.22;27.71;25.13;18.87;0.84
65988;SPS30;53592;51.402;6.054;2023-01-10T06:55:01;8.38;7.98;5.97;3.30;26.77;26.69;26.17;23.62;17.56;0.86
65988;SPS30;53592;51.402;6.054;2023-01-10T06:57:26;8.21;7.83;5.93;3.39;27.44;27.36;26.87;24.45;18.46;0.85
65988;SPS30;53592;51.402;6.054;2023-01-10T06:59:58;8.22;7.83;5.88;3.29;26.65;26.56;26.07;23.58;17.62;0.87
65988;SPS30;53592;51.402;6.054;2023-01-10T07:02:23;8.53;8.12;6.08;3.36;27.25;27.16;26.64;24.04;17.88;0.88
65988;SPS30;53592;51.402;6.054;2023-01-10T07:04:49;8.01;7.64;5.79;3.31;26.81;26.73;26.26;23.89;18.05;0.87
65988;SPS30;53592;51.402;6.054;2023-01-10T07:07:14;8.33;7.95;6.03;3.46;28.01;27.92;27.43;24.98;18.90;0.86
65988;SPS30;53592;51.402;6.054;2023-01-10T07:09:40;8.21;7.82;5.90;3.33;26.98;26.90;26.41;23.95;17.99;0.85
65988;SPS30;53592;51.402;6.054;2023-01-10T07:12:05;8.08;7.70;5.78;3.22;26.15;26.06;25.58;23.13;17.27;0.86
65988;SPS30;53592;51.402;6.054;2023-01-10T07:14:31;8.20;7.82;5.91;3.36;27.25;27.16;26.68;24.24;18.27;0.85
65988;SPS30;53592;51.402;6.054;2023-01-10T07:16:57;7.78;7.43;5.68;3.34;27.00;26.92;26.48;24.25;18.53;0.83
65988;SPS30;53592;51.402;6.054;2023-01-10T07:19:22;8.16;7.79;5.94;3.46;28.04;27.95;27.48;25.12;19.14;0.84
65988;SPS30;53592;51.402;6.054;2023-01-10T07:21:47;8.12;7.76;5.95;3.52;28.53;28.45;27.99;25.68;19.70;0.85
65988;SPS30;53592;51.402;6.054;2023-01-10T07:24:13;7.81;7.46;5.69;3.32;26.86;26.78;26.33;24.07;18.34;0.86
65988;SPS30;53592;51.402;6.054;2023-01-10T07:26:38;8.62;8.21;6.20;3.51;28.46;28.37;27.86;25.29;19.02;0.88
65988;SPS30;53592;51.402;6.054;2023-01-10T07:29:04;8.33;7.95;6.03;3.46;28.01;27.92;27.43;24.98;18.90;0.86
65988;SPS30;53592;51.402;6.054;2023-01-10T07:31:29;8.20;7.80;5.84;3.22;26.16;26.07;25.57;23.07;17.15;0.88
65988;SPS30;53592;51.402;6.054;2023-01-10T07:33:55;9.23;8.77;6.48;3.45;28.07;27.97;27.39;24.48;17.87;0.90
65988;SPS30;53592;51.402;6.054;2023-01-10T07:36:20;9.16;8.70;6.41;3.38;27.44;27.34;26.75;23.84;17.30;0.92
65988;SPS30;53592;51.402;6.054;2023-01-10T07:38:46;9.71;9.21;6.74;3.49;28.38;28.28;27.65;24.52;17.62;0.93
65988;SPS30;53592;51.402;6.054;2023-01-10T07:41:11;10.21;9.70;7.12;3.73;30.31;30.20;29.54;26.28;19.00;0.92
65988;SPS30;53592;51.402;6.054;2023-01-10T07:43:37;9.56;9.09;6.71;3.57;28.99;28.89;28.28;25.27;18.42;0.91
65988;SPS30;53592;51.402;6.054;2023-01-10T07:46:04;9.68;9.19;6.73;3.50;28.44;28.34;27.71;24.60;17.71;0.92
65988;SPS30;53592;51.402;6.054;2023-01-10T07:48:34;9.93;9.43;6.90;3.56;28.98;28.87;28.23;25.02;17.96;0.94
65988;SPS30;53592;51.402;6.054;2023-01-10T07:51:00;9.74;9.25;6.80;3.57;29.04;28.94;28.31;25.21;18.26;0.92
65988;SPS30;53592;51.402;6.054;2023-01-10T07:53:27;9.61;9.14;6.75;3.60;29.25;29.15;28.54;25.51;18.63;0.91
65988;SPS30;53592;51.402;6.054;2023-01-10T07:55:57;10.02;9.52;7.02;3.72;30.25;30.14;29.51;26.34;19.17;0.91
65988;SPS30;53592;51.402;6.054;2023-01-10T07:58:23;8.98;8.55;6.38;3.51;28.49;28.40;27.85;25.09;18.61;0.89
65988;SPS30;53592;51.402;6.054;2023-01-10T08:00:49;9.15;8.73;6.59;3.75;30.36;30.27;29.72;27.00;20.34;0.87
65988;SPS30;53592;51.402;6.054;2023-01-10T08:03:15;8.46;8.07;6.10;3.47;28.16;28.07;27.57;25.06;18.90;0.86
65988;SPS30;53592;51.402;6.054;2023-01-10T08:05:41;8.79;8.37;6.31;3.56;28.84;28.75;28.23;25.60;19.21;0.86
65988;SPS30;53592;51.402;6.054;2023-01-10T08:08:08;9.17;8.72;6.50;3.54;28.78;28.68;28.11;25.28;18.68;0.87
65988;SPS30;53592;51.402;6.054;2023-01-10T08:10:36;8.53;8.13;6.13;3.45;28.00;27.92;27.41;24.85;18.65;0.85
65988;SPS30;53592;51.402;6.054;2023-01-10T08:13:04;8.89;8.46;6.29;3.41;27.73;27.63;27.08;24.32;17.93;0.88
65988;SPS30;53592;51.402;6.054;2023-01-10T08:15:30;9.38;8.91;6.60;3.55;28.81;28.71;28.12;25.19;18.46;0.90
65988;SPS30;53592;51.402;6.054;2023-01-10T08:17:59;9.75;9.27;6.89;3.72;30.22;30.11;29.51;26.47;19.46;0.90
65988;SPS30;53592;51.402;6.054;2023-01-10T08:20:26;9.13;8.69;6.48;3.55;28.85;28.75;28.19;25.39;18.80;0.88
65988;SPS30;53592;51.402;6.054;2023-01-10T08:22:56;9.16;8.73;6.56;3.68;29.80;29.71;29.16;26.40;19.75;0.87
65988;SPS30;53592;51.402;6.054;2023-01-10T08:25:25;8.78;8.37;6.32;3.57;28.97;28.87;28.35;25.73;19.34;0.86
65988;SPS30;53592;51.402;6.054;2023-01-10T08:27:51;8.97;8.54;6.39;3.52;28.60;28.50;27.95;25.21;18.73;0.89
65988;SPS30;53592;51.402;6.054;2023-01-10T08:30:17;10.10;9.60;7.07;3.74;30.41;30.30;29.66;26.45;19.24;0.92
65988;SPS30;53592;51.402;6.054;2023-01-10T08:32:43;10.27;9.77;7.25;3.91;31.78;31.67;31.03;27.83;20.45;0.89
65988;SPS30;53592;51.402;6.054;2023-01-10T08:35:09;9.01;8.57;6.40;3.50;28.41;28.32;27.76;24.99;18.49;0.89
65988;SPS30;53592;51.402;6.054;2023-01-10T08:37:35;10.07;9.57;7.09;3.81;30.94;30.83;30.20;27.05;19.83;0.90
65988;SPS30;53592;51.402;6.054;2023-01-10T08:40:01;9.28;8.82;6.54;3.53;28.64;28.54;27.96;25.07;18.41;0.91
65988;SPS30;53592;51.402;6.054;2023-01-10T08:42:27;8.56;8.15;6.07;3.32;26.96;26.87;26.34;23.70;17.53;0.91
65988;SPS30;53592;51.402;6.054;2023-01-10T08:44:53;9.17;8.73;6.51;3.56;28.87;28.78;28.21;25.38;18.77;0.91
65988;SPS30;53592;51.402;6.054;2023-01-10T08:47:18;10.17;9.67;7.13;3.79;30.78;30.67;30.03;26.81;19.53;0.92
65988;SPS30;53592;51.402;6.054;2023-01-10T08:49:44;10.55;10.03;7.44;4.00;32.52;32.41;31.75;28.45;20.88;0.89
65988;SPS30;53592;51.402;6.054;2023-01-10T08:52:11;8.55;8.15;6.16;3.50;28.39;28.30;27.80;25.26;19.03;0.87
65988;SPS30;53592;51.402;6.054;2023-01-10T08:54:37;9.21;8.78;6.62;3.73;30.26;30.16;29.61;26.86;20.16;0.87
65988;SPS30;53592;51.402;6.054;2023-01-10T08:57:02;8.63;8.23;6.23;3.56;28.83;28.74;28.23;25.68;19.39;0.86
65988;SPS30;53592;51.402;6.054;2023-01-10T08:59:28;9.16;8.73;6.59;3.74;30.32;30.22;29.68;26.95;20.29;0.86
65988;SPS30;53592;51.402;6.054;2023-01-10T09:01:53;9.42;8.96;6.70;3.69;29.92;29.82;29.24;26.36;19.56;0.88
65988;SPS30;53592;51.402;6.054;2023-01-10T09:04:22;9.41;8.95;6.68;3.67;29.77;29.67;29.09;26.21;19.42;0.89
65988;SPS30;53592;51.402;6.054;2023-01-10T09:06:52;8.71;8.29;6.22;3.46;28.08;27.98;27.46;24.82;18.51;0.88
65988;SPS30;53592;51.402;6.054;2023-01-10T09:09:18;9.31;8.86;6.62;3.65;29.65;29.55;28.98;26.13;19.41;0.88
65988;SPS30;53592;51.402;6.054;2023-01-10T09:11:44;9.73;9.26;6.86;3.68;29.90;29.80;29.19;26.14;19.16;0.90
65988;SPS30;53592;51.402;6.054;2023-01-10T09:14:09;9.31;8.86;6.62;3.64;29.55;29.45;28.88;26.03;19.31;0.89
65988;SPS30;53592;51.402;6.054;2023-01-10T09:16:35;8.86;8.43;6.33;3.52;28.59;28.50;27.96;25.28;18.87;0.88
65988;SPS30;53592;51.402;6.054;2023-01-10T09:19:00;9.47;9.00;6.64;3.53;28.65;28.55;27.95;24.96;18.18;0.91
65988;SPS30;53592;51.402;6.054;2023-01-10T09:21:26;9.12;8.67;6.43;3.45;28.04;27.94;27.37;24.52;17.97;0.89
65988;SPS30;53592;51.402;6.054;2023-01-10T09:23:52;8.47;8.06;6.02;3.31;26.83;26.74;26.22;23.62;17.51;0.88
65988;SPS30;53592;51.402;6.054;2023-01-10T09:26:18;8.81;8.40;6.31;3.53;28.64;28.55;28.02;25.36;18.97;0.88
65988;SPS30;53592;51.402;6.054;2023-01-10T09:28:43;9.49;9.04;6.78;3.77;30.56;30.46;29.88;27.00;20.14;0.88
65988;SPS30;53592;51.402;6.054;2023-01-10T09:31:09;8.83;8.41;6.27;3.43;27.84;27.74;27.20;24.48;18.11;0.88
65988;SPS30;53592;51.402;6.054;2023-01-10T09:33:36;9.10;8.67;6.50;3.61;29.27;29.18;28.63;25.86;19.27;0.85
65988;SPS30;53592;51.402;6.054;2023-01-10T09:36:02;8.45;8.06;6.12;3.52;28.53;28.45;27.95;25.48;19.30;0.84
65988;SPS30;53592;51.402;6.054;2023-01-10T09:38:28;8.67;8.27;6.31;3.67;29.75;29.66;29.16;26.65;20.30;0.85
65988;SPS30;53592;51.402;6.054;2023-01-10T09:46:21;8.96;8.57;6.62;3.97;32.13;32.05;31.55;29.04;22.41;0.83
65988;SPS30;53592;51.402;6.054;2023-01-10T09:49:01;8.12;7.77;6.03;3.66;29.62;29.54;29.09;26.86;20.83;0.81
65988;SPS30;53592;51.402;6.054;2023-01-10T09:51:42;8.34;7.95;6.02;3.44;27.89;27.80;27.31;24.85;18.77;0.84
65988;SPS30;53592;51.402;6.054;2023-01-10T09:54:35;8.81;8.41;6.43;3.77;30.50;30.41;29.91;27.37;20.90;0.83
65988;SPS30;53592;51.402;6.054;2023-01-10T09:57:15;8.71;8.32;6.37;3.75;30.35;30.27;29.77;27.28;20.87;0.82
65988;SPS30;53592;51.402;6.054;2023-01-10T09:59:43;7.93;7.60;5.94;3.68;29.76;29.68;29.26;27.13;21.20;0.80